M I D A S
Marine Information and Data Acquisition System
Tripno 357 of the Zeeleeuw from 2002-11-08 08:37:10 to 2002-11-08 11:57:04
Back to CruiseResearch ActivitiesStationsMapUnderway DataData graphs

EquipmentUnitsComment
TimeDGPSUTC
LatitudeDGPSDM.mWGS84
LongitudeDGPSDM.mWGS84
HeadingGyrodeg 
SOGDGPSknotsSpeed over ground
COGDGPSdegCourse over ground
DepthEcho soundermeters200 kHz
Missing or incorrect values are displayed as -999
Navigation data collected by the RV Zeeleeuw from 2002-11-08 08:37:10 to 2002-11-08 11:57:04
                                                                                    Next 1000 lines
Time Latitude Longitude Heading SOG COG Depth
2002-11-08 08:37:19 51°13.718 2°55.751 354.7 3 341.5 11
2002-11-08 08:37:23 51°13.721 2°55.749 348.7 3.2 338.4 10.4
2002-11-08 08:37:27 51°13.724 2°55.745 342.7 3.4 333.8 9.1
2002-11-08 08:37:33 51°13.729 2°55.74 337.5 3.7 329.3 8.9
2002-11-08 08:37:38 51°13.734 2°55.734 333.3 3.9 325.2 8.9
2002-11-08 08:37:43 51°13.738 2°55.729 331 4 323.4 8.8
2002-11-08 08:37:47 51°13.742 2°55.725 330.3 4.2 322.7 8.9
2002-11-08 08:37:53 51°13.748 2°55.718 331 4.4 323.1 8
2002-11-08 08:37:58 51°13.753 2°55.712 331.8 4.5 324.1 8.4
2002-11-08 08:38:03 51°13.759 2°55.706 331.7 4.7 325.8 8.5
2002-11-08 08:38:09 51°13.765 2°55.699 331.7 4.9 326.2 8.5
2002-11-08 08:38:11 51°13.767 2°55.696 331.7 4.9 326.6 8.6
2002-11-08 08:38:18 51°13.776 2°55.688 331.3 5.1 327.2 8.5
2002-11-08 08:38:23 51°13.782 2°55.682 331 5.2 327.5 8.5
2002-11-08 08:38:27 51°13.787 2°55.677 331.5 5.3 328 8.6
2002-11-08 08:38:33 51°13.795 2°55.669 332.7 5.4 329.3 8.7
2002-11-08 08:38:38 51°13.802 2°55.663 333.7 5.6 330.3 8.9
2002-11-08 08:38:43 51°13.809 2°55.656 333.8 5.7 330.7 9
2002-11-08 08:38:48 51°13.816 2°55.65 334.5 6 331.2 9.1
2002-11-08 08:38:52 51°13.823 2°55.644 335.5 6.3 331.6 9.4
2002-11-08 08:38:58 51°13.832 2°55.637 336.8 6.5 333.2 9.4
2002-11-08 08:39:03 51°13.84 2°55.63 337.7 6.6 334 9.5
2002-11-08 08:39:08 51°13.849 2°55.624 337.8 6.8 334.5 9.3
2002-11-08 08:39:13 51°13.858 2°55.617 337.8 6.9 334.6 8.9
2002-11-08 08:39:18 51°13.867 2°55.611 339 7 334.6 9.1
2002-11-08 08:39:23 51°13.876 2°55.604 339.7 7.1 335.2 9.2
2002-11-08 08:39:29 51°13.887 2°55.596 339 7.2 335.2 9
2002-11-08 08:39:33 51°13.894 2°55.59 338.5 7.4 334.1 9
2002-11-08 08:39:38 51°13.903 2°55.583 339.2 7.4 334 8.7
2002-11-08 08:39:43 51°13.913 2°55.576 339.3 7.5 334.2 8.5
2002-11-08 08:39:47 51°13.92 2°55.57 339.8 7.5 334.3 8.6
2002-11-08 08:39:53 51°13.931 2°55.561 340.2 7.5 334.5 8.5
2002-11-08 08:39:58 51°13.941 2°55.554 340 7.6 334.7 8.6
2002-11-08 08:40:03 51°13.951 2°55.547 340.3 7.7 335 8.8
2002-11-08 08:40:07 51°13.959 2°55.541 340.2 7.7 335.5 9
2002-11-08 08:40:13 51°13.97 2°55.532 340.3 7.8 335.2 8.5
2002-11-08 08:40:18 51°13.98 2°55.526 340.7 7.8 335.5 8.8
2002-11-08 08:40:23 51°13.99 2°55.519 340.2 7.8 336 8.4
2002-11-08 08:40:28 51°14 2°55.511 339.7 7.8 335.9 8.3
2002-11-08 08:40:33 51°14.01 2°55.504 340 7.9 335.6 8.4
2002-11-08 08:40:38 51°14.02 2°55.497 340.5 7.9 335.4 8.5
2002-11-08 08:40:43 51°14.03 2°55.489 340.5 7.9 335.3 8.4
2002-11-08 08:40:48 51°14.04 2°55.482 339.7 8 335.1 8.4
2002-11-08 08:40:53 51°14.05 2°55.474 339.2 7.9 334.6 8.4
2002-11-08 08:40:58 51°14.06 2°55.467 339.5 7.9 334.4 8.1
2002-11-08 08:41:03 51°14.07 2°55.459 339.2 8 334.4 8
2002-11-08 08:41:07 51°14.078 2°55.452 338.8 8 334.2 8.3
2002-11-08 08:41:13 51°14.09 2°55.443 339.3 8 334.4 -999
2002-11-08 08:41:19 51°14.102 2°55.434 338.8 8 334.5 8.5
2002-11-08 08:41:23 51°14.11 2°55.428 338.5 8 333.8 8
2002-11-08 08:41:29 51°14.121 2°55.419 338 8 333.6 8
2002-11-08 08:41:33 51°14.129 2°55.412 337.2 7.9 333 8
2002-11-08 08:41:38 51°14.139 2°55.404 336.5 7.9 332 8.4
2002-11-08 08:41:43 51°14.148 2°55.395 335.8 7.9 331 8.4
2002-11-08 08:41:49 51°14.16 2°55.384 335 8 330.4 8.5
2002-11-08 08:41:53 51°14.168 2°55.377 333.2 8 329 8.5
2002-11-08 08:41:58 51°14.177 2°55.367 331.7 7.9 327.5 8.3
2002-11-08 08:42:03 51°14.186 2°55.357 330.3 7.9 326 8.5
2002-11-08 08:42:09 51°14.196 2°55.345 328.5 7.9 324.7 8.4
2002-11-08 08:42:13 51°14.203 2°55.336 327.3 7.9 322.6 8.5
2002-11-08 08:42:18 51°14.211 2°55.326 326.3 7.8 321.7 8.5
2002-11-08 08:42:23 51°14.22 2°55.315 324.8 7.8 320.7 8.5
2002-11-08 08:42:28 51°14.228 2°55.303 323 7.8 318.6 8.5
2002-11-08 08:42:33 51°14.236 2°55.291 321.5 7.8 317 8.5
2002-11-08 08:42:38 51°14.243 2°55.279 320.2 7.7 315.4 8.5
2002-11-08 08:42:43 51°14.25 2°55.266 319.3 7.8 314.2 8.5
2002-11-08 08:42:47 51°14.256 2°55.256 318.8 7.9 313.4 8.4
2002-11-08 08:42:53 51°14.266 2°55.241 318.2 8.1 312.8 8.5
2002-11-08 08:42:58 51°14.274 2°55.227 317.3 8.3 312.2 8.5
2002-11-08 08:43:03 51°14.282 2°55.213 316.8 8.4 312 8.5
2002-11-08 08:43:08 51°14.29 2°55.199 316.5 8.6 311.3 8.5
2002-11-08 08:43:12 51°14.297 2°55.187 316.3 8.8 311.2 8.5
2002-11-08 08:43:18 51°14.307 2°55.169 316.5 9 310.9 8.5
2002-11-08 08:43:23 51°14.315 2°55.153 316.7 9.1 311 8.6
2002-11-08 08:43:28 51°14.324 2°55.138 316.3 9.2 311 8.5
2002-11-08 08:43:33 51°14.332 2°55.122 316.5 9.3 310.8 8.5
2002-11-08 08:43:38 51°14.341 2°55.107 317 9.3 311.2 8.4
2002-11-08 08:43:43 51°14.349 2°55.092 317 9.3 311.4 8.7
2002-11-08 08:43:47 51°14.356 2°55.079 317.2 9.4 311.8 9.1
2002-11-08 08:43:52 51°14.365 2°55.064 317.3 9.4 311.6 9
2002-11-08 08:43:58 51°14.375 2°55.044 316.2 9.5 310.7 8.9
2002-11-08 08:44:03 51°14.383 2°55.027 311.8 9.5 308.7 8.9
2002-11-08 08:44:06 51°14.387 2°55.016 306.2 9.4 303.6 8.8
2002-11-08 08:44:14 51°14.396 2°54.986 300.8 9.3 296.8 9
2002-11-08 08:44:18 51°14.4 2°54.971 296.3 9.3 292.8 8.7
2002-11-08 08:44:23 51°14.403 2°54.951 291.5 9.3 287.2 8.7
2002-11-08 08:44:28 51°14.406 2°54.931 287.3 9.3 283.7 8.7
2002-11-08 08:44:33 51°14.407 2°54.911 283.2 9.3 279 8.9
2002-11-08 08:44:38 51°14.408 2°54.89 278.8 9.3 274.5 8.9
2002-11-08 08:44:43 51°14.407 2°54.869 274.5 9.4 271.1 8.6
2002-11-08 08:44:46 51°14.407 2°54.856 270.5 9.5 267.7 8.5
2002-11-08 08:44:53 51°14.405 2°54.825 268.5 10.1 264.7 8.9
2002-11-08 08:44:59 51°14.403 2°54.796 268.3 10.5 264.2 8.7
2002-11-08 08:45:03 51°14.402 2°54.776 269.7 11.2 264.4 8.7
2002-11-08 08:45:09 51°14.401 2°54.744 271.7 11.5 265.3 8.6
2002-11-08 08:45:14 51°14.4 2°54.718 272.3 12 266.8 8.8
2002-11-08 08:45:18 51°14.399 2°54.696 271.8 12.3 266.4 8.6
2002-11-08 08:45:23 51°14.397 2°54.669 270.7 12.4 265.7 8.8
2002-11-08 08:45:28 51°14.395 2°54.641 267.5 12.6 264 8.8
2002-11-08 08:45:32 51°14.392 2°54.618 264.5 12.8 260.1 8.8
2002-11-08 08:45:38 51°14.388 2°54.584 263 13 258.9 8.9
2002-11-08 08:45:43 51°14.384 2°54.556 263.2 13 257.9 8.3
2002-11-08 08:45:47 51°14.381 2°54.534 262.8 13.2 257.7 7.9
2002-11-08 08:45:53 51°14.376 2°54.5 261.8 13.2 256.6 7.9
2002-11-08 08:45:58 51°14.371 2°54.472 260.2 13.1 255.6 7.8
2002-11-08 08:46:03 51°14.365 2°54.444 258.5 13.1 254 7.8
2002-11-08 08:46:06 51°14.362 2°54.428 256.3 13.1 251.9 7.7
2002-11-08 08:46:13 51°14.353 2°54.39 253.5 13.1 249.2 7.7
2002-11-08 08:46:18 51°14.345 2°54.364 251 13.1 247.6 7.6
2002-11-08 08:46:23 51°14.337 2°54.337 249.3 13.2 245.5 7.6
2002-11-08 08:46:27 51°14.331 2°54.316 247.3 13.2 243.8 7.6
2002-11-08 08:46:34 51°14.318 2°54.281 245.7 13.2 241.6 7.6
2002-11-08 08:46:38 51°14.31 2°54.261 243.3 13.2 239.7 7.5
2002-11-08 08:46:43 51°14.301 2°54.235 242.5 13.3 238.6 7.5
2002-11-08 08:46:48 51°14.291 2°54.21 242 13.4 238.7 7.4
2002-11-08 08:46:52 51°14.283 2°54.19 242 13.4 238.6 7.4
2002-11-08 08:46:58 51°14.272 2°54.16 243.5 13.4 238.7 7.4
2002-11-08 08:47:03 51°14.262 2°54.135 242.7 13.3 239.1 7.4
2002-11-08 08:47:08 51°14.252 2°54.11 241.8 13.4 238 7.3
2002-11-08 08:47:13 51°14.242 2°54.084 241.8 13.5 237.7 7.3
2002-11-08 08:47:18 51°14.233 2°54.059 242.5 13.4 238 7.3
2002-11-08 08:47:23 51°14.223 2°54.033 243.7 13.4 238.9 7.3
2002-11-08 08:47:28 51°14.214 2°54.007 245.8 13.5 241.1 7.3
2002-11-08 08:47:33 51°14.206 2°53.981 247.3 13.5 241.8 7.3
2002-11-08 08:47:38 51°14.197 2°53.955 247.7 13.5 242.9 7.3
2002-11-08 08:47:43 51°14.189 2°53.928 247.8 13.4 243.2 7.3
2002-11-08 08:47:48 51°14.182 2°53.9 249.7 13.5 244.6 7.3
2002-11-08 08:47:53 51°14.173 2°53.874 249.8 13.4 244.6 7.3
2002-11-08 08:47:58 51°14.165 2°53.847 250.5 13.5 245.1 7.4
2002-11-08 08:48:03 51°14.158 2°53.82 250 13.5 245.3 7.4
2002-11-08 08:48:08 51°14.149 2°53.793 249.3 13.5 244.6 7.4
2002-11-08 08:48:13 51°14.141 2°53.766 249.5 13.6 244.7 7.4
2002-11-08 08:48:18 51°14.133 2°53.738 249.2 13.7 244.1 7.5
2002-11-08 08:48:23 51°14.124 2°53.712 248.8 13.7 243.9 7.5
2002-11-08 08:48:28 51°14.116 2°53.685 248.2 13.7 243.5 7.5
2002-11-08 08:48:33 51°14.107 2°53.657 248.5 13.7 243.6 7.5
2002-11-08 08:48:38 51°14.098 2°53.63 248.2 13.8 243.1 7.5
2002-11-08 08:48:43 51°14.09 2°53.603 248.5 13.8 243.5 7.6
2002-11-08 08:48:47 51°14.083 2°53.581 248.3 13.8 243 7.6
2002-11-08 08:48:53 51°14.073 2°53.548 248 13.8 243.4 7.6
2002-11-08 08:48:58 51°14.065 2°53.521 249 13.8 243.6 7.6
2002-11-08 08:49:03 51°14.056 2°53.494 248.3 13.8 243.6 7.7
2002-11-08 08:49:08 51°14.048 2°53.466 249.2 13.8 244.4 7.7
2002-11-08 08:49:13 51°14.039 2°53.438 249.5 13.8 244.2 7.7
2002-11-08 08:49:18 51°14.032 2°53.41 250 13.9 245.1 7.7
2002-11-08 08:49:23 51°14.023 2°53.383 249.5 13.9 244.3 7.7
2002-11-08 08:49:27 51°14.017 2°53.361 249.5 13.9 244.5 7.7
2002-11-08 08:49:33 51°14.007 2°53.328 249.8 13.9 244.7 7.7
2002-11-08 08:49:38 51°13.998 2°53.3 249.5 13.9 244.6 7.8
2002-11-08 08:49:43 51°13.991 2°53.272 250 13.9 245.3 7.9
2002-11-08 08:49:48 51°13.982 2°53.244 249.3 13.9 244.5 7.9
2002-11-08 08:49:53 51°13.974 2°53.216 249.7 14 244.7 7.9
2002-11-08 08:49:58 51°13.965 2°53.188 249.5 14 244.5 8
2002-11-08 08:50:04 51°13.956 2°53.154 249.7 14.1 244.5 8
2002-11-08 08:50:08 51°13.949 2°53.132 248.8 14.1 244.4 8
2002-11-08 08:50:13 51°13.941 2°53.104 249.7 14.1 244.9 8.1
2002-11-08 08:50:19 51°13.93 2°53.07 249.5 14 244.5 8.2
2002-11-08 08:50:24 51°13.923 2°53.042 249.7 14.1 245.1 8.3
2002-11-08 08:50:29 51°13.914 2°53.014 249.3 14.1 244.2 8.3
2002-11-08 08:50:34 51°13.905 2°52.986 249.2 14.1 244.2 8.3
2002-11-08 08:50:39 51°13.897 2°52.958 248.7 14.1 243.9 8.4
2002-11-08 08:50:44 51°13.888 2°52.93 249.3 14.1 244 8.4
2002-11-08 08:50:47 51°13.883 2°52.913 249.2 14.1 244.6 8.5
2002-11-08 08:50:54 51°13.872 2°52.874 249.5 14.1 244.6 8.5
2002-11-08 08:50:59 51°13.863 2°52.845 249.3 14.1 244.8 8.5
2002-11-08 08:51:04 51°13.855 2°52.817 249.8 14.1 244.8 8.5
2002-11-08 08:51:07 51°13.85 2°52.8 249.3 14.1 244.7 8.6
2002-11-08 08:51:14 51°13.838 2°52.761 250 14.1 244.3 8.6
2002-11-08 08:51:19 51°13.83 2°52.733 249.3 14.1 244.7 8.6
2002-11-08 08:51:24 51°13.822 2°52.704 249.8 14.1 245.4 8.6
2002-11-08 08:51:28 51°13.815 2°52.682 249.3 14.1 245 8.6
2002-11-08 08:51:34 51°13.805 2°52.648 250.5 14.1 245.6 8.6
2002-11-08 08:51:39 51°13.796 2°52.62 249.2 14 244.9 8.6
2002-11-08 08:51:44 51°13.789 2°52.591 250.7 14.1 244.8 8.7
2002-11-08 08:51:48 51°13.782 2°52.57 249.3 14 244.9 8.7
2002-11-08 08:51:54 51°13.772 2°52.536 249.8 14 244.7 8.7
2002-11-08 08:51:59 51°13.763 2°52.508 249.3 14.1 244.6 8.7
2002-11-08 08:52:04 51°13.756 2°52.479 250.3 14 244.8 8.8
2002-11-08 08:52:08 51°13.748 2°52.458 249.2 14 244 8.8
2002-11-08 08:52:14 51°13.739 2°52.423 249.8 14.1 244.8 8.8
2002-11-08 08:52:19 51°13.73 2°52.396 249.5 14 244.3 8.8
2002-11-08 08:52:23 51°13.724 2°52.373 249.7 14 245.1 8.9
2002-11-08 08:52:28 51°13.715 2°52.345 249.8 14 244.8 9
2002-11-08 08:52:34 51°13.706 2°52.311 249.2 14 244.9 9
2002-11-08 08:52:38 51°13.699 2°52.289 250 14.1 245 8.9
2002-11-08 08:52:44 51°13.689 2°52.255 249.8 14 245.2 9
2002-11-08 08:52:49 51°13.682 2°52.227 249.7 14 244.9 9
2002-11-08 08:52:54 51°13.673 2°52.199 249.5 14 245.3 9
2002-11-08 08:52:59 51°13.665 2°52.171 249.7 14 245.3 9
2002-11-08 08:53:03 51°13.658 2°52.148 249.8 14.1 245.3 8.9
2002-11-08 08:53:08 51°13.649 2°52.121 249.2 14 245.2 9
2002-11-08 08:53:14 51°13.64 2°52.087 249.5 14 244.9 9
2002-11-08 08:53:19 51°13.632 2°52.059 249.8 14 245 9
2002-11-08 08:53:24 51°13.623 2°52.031 249.2 14 244.4 9
2002-11-08 08:53:28 51°13.617 2°52.008 247.3 14 244.4 9
2002-11-08 08:53:34 51°13.606 2°51.975 248.3 14 243 9
2002-11-08 08:53:38 51°13.599 2°51.954 246.5 14 243.1 9
2002-11-08 08:53:44 51°13.588 2°51.92 246.8 14.1 242.2 9
2002-11-08 08:53:48 51°13.581 2°51.898 246.2 14 243.3 9
2002-11-08 08:53:54 51°13.57 2°51.865 246.7 14 242.1 9
2002-11-08 08:53:59 51°13.56 2°51.839 245.8 14 242.4 9
2002-11-08 08:54:03 51°13.553 2°51.816 246.7 14 242.2 9
2002-11-08 08:54:09 51°13.542 2°51.784 245.8 14 242.6 9.1
2002-11-08 08:54:14 51°13.533 2°51.756 245.5 14.1 241.4 9
2002-11-08 08:54:19 51°13.523 2°51.729 245 14.1 240.6 9
2002-11-08 08:54:24 51°13.514 2°51.702 244.8 14 241.2 9
2002-11-08 08:54:28 51°13.506 2°51.681 244.2 13.9 240.4 8.9
2002-11-08 08:54:32 51°13.498 2°51.659 244.7 14.1 240.2 9
2002-11-08 08:54:39 51°13.485 2°51.621 244.8 14.1 241 9.1
2002-11-08 08:54:43 51°13.477 2°51.599 245.2 14.1 240.7 9.1
2002-11-08 08:54:48 51°13.468 2°51.572 244.5 14 240.9 9.2
2002-11-08 08:54:54 51°13.456 2°51.54 244 14 240.7 9.2
2002-11-08 08:54:59 51°13.446 2°51.513 244.3 14.1 240 9.3
2002-11-08 08:55:04 51°13.437 2°51.486 244.5 14.1 240.1 9.3
2002-11-08 08:55:08 51°13.429 2°51.465 244 14 240.2 9.3
2002-11-08 08:55:14 51°13.418 2°51.432 244.7 14 240.5 9.3
2002-11-08 08:55:19 51°13.408 2°51.405 244.2 14 240.9 9.3
2002-11-08 08:55:24 51°13.398 2°51.378 244.2 14.1 240.6 9.2
2002-11-08 08:55:29 51°13.389 2°51.351 244.8 14 240.4 9.2
2002-11-08 08:55:32 51°13.382 2°51.336 243.3 14 239.6 9.2
2002-11-08 08:55:39 51°13.369 2°51.297 245 14.1 239.9 9.3
2002-11-08 08:55:43 51°13.362 2°51.276 244.2 14.1 240.5 9.3
2002-11-08 08:55:48 51°13.352 2°51.248 244.3 14.1 240.3 9.3
2002-11-08 08:55:54 51°13.34 2°51.216 244.7 14.1 240.9 9.4
2002-11-08 08:55:59 51°13.331 2°51.189 244.5 14 240.4 9.4
2002-11-08 08:56:04 51°13.321 2°51.163 244.2 14 240.7 9.4
2002-11-08 08:56:08 51°13.314 2°51.14 245.3 14.1 240.7 9.5
2002-11-08 08:56:14 51°13.302 2°51.109 244.3 14 240.2 9.4
2002-11-08 08:56:19 51°13.293 2°51.081 244.5 14.1 240.8 9.4
2002-11-08 08:56:24 51°13.283 2°51.054 244.8 14.1 240.6 9.4
2002-11-08 08:56:28 51°13.275 2°51.033 244.2 14.2 240.2 9.5
2002-11-08 08:56:32 51°13.267 2°51.01 244.5 14.2 240.6 9.4
2002-11-08 08:56:39 51°13.253 2°50.972 244.5 14.3 239.8 9.4
2002-11-08 08:56:44 51°13.243 2°50.944 244.2 14.4 240.3 9.4
2002-11-08 08:56:48 51°13.235 2°50.922 244.3 14.5 239.4 9.3
2002-11-08 08:56:52 51°13.227 2°50.9 244.3 14.6 240.2 9.3
2002-11-08 08:56:59 51°13.213 2°50.86 245.2 14.7 240.5 9.3
2002-11-08 08:57:04 51°13.203 2°50.832 244.3 14.7 241.1 9.4
2002-11-08 08:57:07 51°13.197 2°50.814 245.2 14.7 240.9 9.4
2002-11-08 08:57:14 51°13.183 2°50.775 244.3 14.7 240.9 9.5
2002-11-08 08:57:19 51°13.173 2°50.747 244.3 14.8 240 9.5
2002-11-08 08:57:23 51°13.165 2°50.724 244.3 14.8 240.6 9.5
2002-11-08 08:57:27 51°13.157 2°50.7 244.5 14.9 240.5 9.5
2002-11-08 08:57:34 51°13.143 2°50.66 244.3 14.9 241.4 9.5
2002-11-08 08:57:38 51°13.135 2°50.637 245 14.9 241 9.6
2002-11-08 08:57:43 51°13.125 2°50.608 244.5 14.9 241.5 9.5
2002-11-08 08:57:48 51°13.115 2°50.579 244.7 14.9 240.9 9.5
2002-11-08 08:57:54 51°13.103 2°50.545 244.3 14.9 240.7 9.5
2002-11-08 08:57:59 51°13.093 2°50.515 245 15 240.9 9.6
2002-11-08 08:58:03 51°13.085 2°50.492 244.7 15 241.2 9.5
2002-11-08 08:58:08 51°13.074 2°50.463 244.2 15 240.8 9.5
2002-11-08 08:58:12 51°13.066 2°50.44 244.7 15.1 241.2 9.5
2002-11-08 08:58:19 51°13.052 2°50.4 244.2 15 240.1 9.5
2002-11-08 08:58:24 51°13.042 2°50.371 244.2 15 240.7 9.5
2002-11-08 08:58:28 51°13.034 2°50.348 244.8 15.1 240.4 9.6
2002-11-08 08:58:32 51°13.026 2°50.324 244.8 15.1 240.9 9.5
2002-11-08 08:58:39 51°13.011 2°50.283 244.7 15.1 240.5 9.6
2002-11-08 08:58:44 51°13.001 2°50.254 244.8 15.1 240.8 9.5
2002-11-08 08:58:48 51°12.992 2°50.231 243.8 15.1 240.3 9.6
2002-11-08 08:58:54 51°12.981 2°50.196 244.7 15.2 241 9.6
2002-11-08 08:58:59 51°12.97 2°50.167 244.3 15.1 240.5 9.7
2002-11-08 08:59:03 51°12.962 2°50.143 244.7 15.1 241.3 9.7
2002-11-08 08:59:08 51°12.951 2°50.114 244.5 15.2 240.7 9.7
2002-11-08 08:59:14 51°12.939 2°50.079 245 15.2 240.8 9.7
2002-11-08 08:59:19 51°12.929 2°50.05 244.3 15.2 240.8 9.7
2002-11-08 08:59:23 51°12.921 2°50.026 244.7 15.2 241.1 9.7
2002-11-08 08:59:28 51°12.911 2°49.997 244.8 15.2 241.1 9.7
2002-11-08 08:59:34 51°12.898 2°49.962 244 15.2 240.7 9.8
2002-11-08 08:59:39 51°12.888 2°49.932 244.5 15.3 241.1 9.7
2002-11-08 08:59:43 51°12.879 2°49.909 244.5 15.2 240.7 9.7
2002-11-08 08:59:48 51°12.868 2°49.88 243.5 15.2 240.1 9.8
2002-11-08 08:59:54 51°12.856 2°49.845 244.2 15.2 240.4 9.7
2002-11-08 08:59:59 51°12.846 2°49.815 243.7 15.2 239.8 9.8
2002-11-08 09:00:03 51°12.837 2°49.792 244.3 15.3 240.3 9.8
2002-11-08 09:00:08 51°12.827 2°49.763 244.5 15.3 240.5 9.8
2002-11-08 09:00:12 51°12.819 2°49.739 243.7 15.2 240.4 9.8
2002-11-08 09:00:19 51°12.805 2°49.698 245 15.2 240.8 9.8
2002-11-08 09:00:23 51°12.796 2°49.675 244 15.2 241 9.8
2002-11-08 09:00:29 51°12.784 2°49.64 244.8 15.3 240.7 9.9
2002-11-08 09:00:33 51°12.775 2°49.616 244.7 15.2 241.1 9.9
2002-11-08 09:00:39 51°12.763 2°49.58 245 15.3 240.9 9.9
2002-11-08 09:00:43 51°12.755 2°49.557 244.3 15.3 241.8 9.8
2002-11-08 09:00:48 51°12.745 2°49.528 244.5 15.2 241 9.8
2002-11-08 09:00:52 51°12.736 2°49.505 244.7 15.2 240.8 9.8
2002-11-08 09:00:59 51°12.722 2°49.463 245.3 15.3 241.4 9.9
2002-11-08 09:01:04 51°12.712 2°49.434 244.2 15.2 241.3 9.9
2002-11-08 09:01:08 51°12.704 2°49.411 244.3 15.2 240.9 9.9
2002-11-08 09:01:12 51°12.696 2°49.387 245.2 15.3 241.3 9.9
2002-11-08 09:01:19 51°12.681 2°49.346 244.7 15.2 241.3 9.9
2002-11-08 09:01:23 51°12.673 2°49.322 244.3 15.1 241.1 9.9
2002-11-08 09:01:28 51°12.663 2°49.293 244.7 15.2 241.1 9.9
2002-11-08 09:01:34 51°12.651 2°49.258 245.2 15.3 241.2 10
2002-11-08 09:01:39 51°12.641 2°49.228 244 15.2 241 10
2002-11-08 09:01:43 51°12.632 2°49.205 244.7 15.2 240.8 10
2002-11-08 09:01:48 51°12.623 2°49.175 245.3 15.2 242.1 10.1
2002-11-08 09:01:53 51°12.612 2°49.146 244.3 15.2 240.3 10.1
2002-11-08 09:01:59 51°12.601 2°49.11 245.8 15.3 242 10.1
2002-11-08 09:02:03 51°12.592 2°49.088 243.8 15.2 240.6 10
2002-11-08 09:02:07 51°12.584 2°49.063 245.8 15.2 241.3 10
2002-11-08 09:02:14 51°12.57 2°49.023 244.5 15.1 241.3 10.1
2002-11-08 09:02:19 51°12.56 2°48.993 245.2 15.2 241 10.1
2002-11-08 09:02:24 51°12.549 2°48.964 245.3 15.2 241.6 10.2
2002-11-08 09:02:28 51°12.542 2°48.94 244.8 15.1 241.2 10.1
2002-11-08 09:02:32 51°12.533 2°48.917 244.8 15.1 241 10.2
2002-11-08 09:02:39 51°12.519 2°48.876 244.7 15.1 241.2 10.2
2002-11-08 09:02:44 51°12.51 2°48.846 245 15.1 241.2 10.1
2002-11-08 09:02:48 51°12.501 2°48.822 245 15.2 241.7 10.2
2002-11-08 09:02:52 51°12.494 2°48.798 245.2 15.2 241.9 10.2
2002-11-08 09:02:59 51°12.479 2°48.757 244.8 15.2 241.6 10.2
2002-11-08 09:03:04 51°12.469 2°48.728 244.2 15.2 241.6 10.2
2002-11-08 09:03:07 51°12.463 2°48.711 244.2 15.1 240.7 10.3
2002-11-08 09:03:14 51°12.448 2°48.67 244.2 15.2 241.1 10.2
2002-11-08 09:03:19 51°12.438 2°48.641 244.3 15.2 240.7 10.2
2002-11-08 09:03:23 51°12.43 2°48.617 244.5 15.2 240.8 10.2
2002-11-08 09:03:28 51°12.42 2°48.587 245.3 15.2 241.2 10.3
2002-11-08 09:03:32 51°12.412 2°48.564 243.8 15.2 240.7 10.2
2002-11-08 09:03:39 51°12.398 2°48.523 244.5 15.1 241.3 10.2
2002-11-08 09:03:43 51°12.389 2°48.5 244.5 15.2 241.2 10.3
2002-11-08 09:03:48 51°12.38 2°48.47 244.3 15.1 241.4 10.3
2002-11-08 09:03:54 51°12.367 2°48.435 244.2 15.2 240.4 10.3
2002-11-08 09:03:59 51°12.357 2°48.405 244.8 15.2 241.9 10.3
2002-11-08 09:04:04 51°12.347 2°48.376 245.2 15.2 241 10.4
2002-11-08 09:04:08 51°12.339 2°48.353 244.5 15.1 241.6 10.4
2002-11-08 09:04:13 51°12.329 2°48.324 245.2 15.1 241.1 10.4
2002-11-08 09:04:19 51°12.316 2°48.289 244 15.1 241.4 10.3
2002-11-08 09:04:23 51°12.309 2°48.265 244.5 15.1 240.7 10.3
2002-11-08 09:04:28 51°12.299 2°48.236 244.7 15.1 241.6 10.3
2002-11-08 09:04:32 51°12.29 2°48.213 244.8 15.1 241 10.4
2002-11-08 09:04:39 51°12.276 2°48.172 244.2 15.1 241 10.4
2002-11-08 09:04:44 51°12.267 2°48.142 244.8 15.1 241.1 10.4
2002-11-08 09:04:48 51°12.258 2°48.119 244.3 15.1 240.9 10.5
2002-11-08 09:04:54 51°12.247 2°48.084 244.5 15.1 241.2 10.5
2002-11-08 09:04:59 51°12.236 2°48.054 243.8 15.1 241 10.4
2002-11-08 09:05:03 51°12.228 2°48.031 245.3 15.2 241.1 10.5
2002-11-08 09:05:08 51°12.218 2°48.001 246.2 15.1 242.1 10.5
2002-11-08 09:05:14 51°12.208 2°47.965 247.7 15.1 243.1 10.4
2002-11-08 09:05:19 51°12.198 2°47.935 248.3 15.1 243.9 10.5
2002-11-08 09:05:23 51°12.192 2°47.911 248.3 15.1 244.8 10.4
2002-11-08 09:05:28 51°12.182 2°47.881 248.7 15.1 243.8 10.5
2002-11-08 09:05:34 51°12.171 2°47.845 248.3 15.1 245.5 10.5
2002-11-08 09:05:39 51°12.162 2°47.815 249.2 15.1 244 10.5
2002-11-08 09:05:44 51°12.155 2°47.784 250.7 15.1 246.5 10.5
2002-11-08 09:05:48 51°12.147 2°47.76 250.5 15.1 245.7 10.5
2002-11-08 09:05:52 51°12.142 2°47.735 252.2 15.1 247.7 10.5
2002-11-08 09:05:59 51°12.131 2°47.691 252 15.1 247.5 10.6
2002-11-08 09:06:03 51°12.124 2°47.667 252 15.1 248.1 10.6
2002-11-08 09:06:08 51°12.117 2°47.636 253.2 15.1 248.7 10.6
2002-11-08 09:06:14 51°12.108 2°47.598 252.8 15.1 248.4 10.6
2002-11-08 09:06:19 51°12.101 2°47.567 254 15.1 249.7 10.7
2002-11-08 09:06:24 51°12.093 2°47.536 253.8 15.1 249.3 10.7
2002-11-08 09:06:28 51°12.088 2°47.51 255.2 15.1 250.5 10.8
2002-11-08 09:06:34 51°12.079 2°47.473 254.5 15.1 250 10.8
2002-11-08 09:06:39 51°12.072 2°47.441 254.5 15.1 250.7 10.8
2002-11-08 09:06:43 51°12.066 2°47.416 254.3 15.1 250.2 10.8
2002-11-08 09:06:48 51°12.059 2°47.385 254.7 15.2 250.4 10.9
2002-11-08 09:06:52 51°12.053 2°47.36 254.2 15.1 250.2 10.9
2002-11-08 09:06:59 51°12.043 2°47.316 253.5 15.1 249.6 10.9
2002-11-08 09:07:03 51°12.038 2°47.291 254.2 15.1 249.8 10.9
2002-11-08 09:07:08 51°12.03 2°47.259 253.8 15.2 249.8 11
2002-11-08 09:07:14 51°12.021 2°47.222 253.2 15.1 249.1 10.9
2002-11-08 09:07:19 51°12.014 2°47.19 254.2 15.2 248.9 11
2002-11-08 09:07:23 51°12.008 2°47.166 253.3 15.2 249.7 10.9
2002-11-08 09:07:28 51°12 2°47.134 254.2 15.2 249.2 10.9
2002-11-08 09:07:34 51°11.991 2°47.097 254 15.1 250.2 10.9
2002-11-08 09:07:39 51°11.984 2°47.065 254.5 15.2 249.5 11
2002-11-08 09:07:44 51°11.977 2°47.034 254.3 15.2 250.4 11
2002-11-08 09:07:48 51°11.97 2°47.009 254.2 15.2 248.8 11
2002-11-08 09:07:52 51°11.965 2°46.983 254.5 15.2 249.8 11
2002-11-08 09:07:59 51°11.955 2°46.94 253.8 15.1 249 11
2002-11-08 09:08:04 51°11.948 2°46.908 254.2 15.1 249.8 11
2002-11-08 09:08:08 51°11.941 2°46.883 253.7 15.1 249.2 11
2002-11-08 09:08:14 51°11.933 2°46.845 254.5 15.2 249.6 11
2002-11-08 09:08:19 51°11.926 2°46.814 253.7 15.1 249.7 11.1
2002-11-08 09:08:24 51°11.919 2°46.783 253.8 15.1 249.6 11
2002-11-08 09:08:28 51°11.913 2°46.758 254.2 15.2 250 11.1
2002-11-08 09:08:34 51°11.904 2°46.72 253.7 15.1 249.7 11.1
2002-11-08 09:08:39 51°11.897 2°46.689 254 15.1 250 11.1
2002-11-08 09:08:44 51°11.89 2°46.657 254.3 15.1 250.1 11.1
2002-11-08 09:08:47 51°11.885 2°46.638 254.5 15.2 250 11.1
2002-11-08 09:08:53 51°11.876 2°46.601 253.5 15.1 250.2 11.2
2002-11-08 09:08:58 51°11.868 2°46.57 254 15.1 248.9 11.2
2002-11-08 09:09:04 51°11.86 2°46.532 254.3 15.2 250 11.1
2002-11-08 09:09:08 51°11.854 2°46.507 254 15.2 249.7 11.1
2002-11-08 09:09:14 51°11.846 2°46.469 254 15.1 250.5 11.1
2002-11-08 09:09:19 51°11.838 2°46.437 254.2 15.1 249.8 11.2
2002-11-08 09:09:24 51°11.831 2°46.406 253.8 15.1 250.4 11.1
2002-11-08 09:09:28 51°11.825 2°46.381 253.5 15.2 249.2 11.1
2002-11-08 09:09:34 51°11.817 2°46.343 254 15.2 250.1 11.1
2002-11-08 09:09:39 51°11.809 2°46.312 253.2 15.2 249.1 11.2
2002-11-08 09:09:44 51°11.802 2°46.28 254.3 15.2 250.4 11.3
2002-11-08 09:09:48 51°11.796 2°46.256 253.3 15.1 249.3 11.2
2002-11-08 09:09:54 51°11.787 2°46.218 254 15.2 249.6 11.2
2002-11-08 09:09:59 51°11.779 2°46.187 253.2 15.1 249.6 11.2
2002-11-08 09:10:04 51°11.772 2°46.155 253.5 15.2 249.1 11.2
2002-11-08 09:10:08 51°11.765 2°46.13 253.7 15.2 249.3 11.2
2002-11-08 09:10:12 51°11.759 2°46.105 254.3 15.2 249.5 11.2
2002-11-08 09:10:19 51°11.749 2°46.061 254.2 15.2 249.6 11.3
2002-11-08 09:10:24 51°11.742 2°46.029 253.8 15.1 249.9 11.2
2002-11-08 09:10:28 51°11.736 2°46.004 254.3 15.1 249.8 11.2
2002-11-08 09:10:34 51°11.728 2°45.966 253.5 15.2 249.8 11.2
2002-11-08 09:10:38 51°11.722 2°45.941 253.8 15.2 249.9 11.2
2002-11-08 09:10:44 51°11.713 2°45.903 253.5 15.1 250 11.2
2002-11-08 09:10:48 51°11.707 2°45.878 253.8 15.2 249.5 11.2
2002-11-08 09:10:53 51°11.7 2°45.847 253.7 15.2 249.9 11.2
2002-11-08 09:10:59 51°11.692 2°45.809 254.2 15.3 249.6 11.2
2002-11-08 09:11:03 51°11.686 2°45.784 253.3 15.2 250.4 11.2
2002-11-08 09:11:08 51°11.679 2°45.753 253.5 15.1 249.4 11.3
2002-11-08 09:11:14 51°11.67 2°45.716 253.2 15.1 250 11.2
2002-11-08 09:11:19 51°11.663 2°45.684 253.7 15.2 249.7 11.2
2002-11-08 09:11:24 51°11.656 2°45.653 254.2 15.3 250.3 11.2
2002-11-08 09:11:28 51°11.65 2°45.628 253.5 15.1 249.9 11.2
2002-11-08 09:11:34 51°11.641 2°45.59 253.3 15.1 249.7 11.2
2002-11-08 09:11:39 51°11.634 2°45.558 253.7 15.1 250.1 11.2
2002-11-08 09:11:44 51°11.626 2°45.527 253.5 15.1 250.1 11.2
2002-11-08 09:11:48 51°11.621 2°45.502 253.8 15.2 250 11.2
2002-11-08 09:11:52 51°11.615 2°45.477 253.7 15.2 250.3 11.2
2002-11-08 09:11:59 51°11.604 2°45.433 253.2 15.1 249.6 11.2
2002-11-08 09:12:03 51°11.599 2°45.408 254 15.2 250.2 11.2
2002-11-08 09:12:08 51°11.591 2°45.377 253.3 15.1 249.5 11.2
2002-11-08 09:12:14 51°11.583 2°45.338 254 15.2 250.1 11.2
2002-11-08 09:12:19 51°11.576 2°45.307 254 15.1 250 11.2
2002-11-08 09:12:24 51°11.569 2°45.276 253.7 15.1 250.6 11.2
2002-11-08 09:12:28 51°11.563 2°45.251 254.2 15.1 250 11.2
2002-11-08 09:12:34 51°11.555 2°45.213 253.8 15.1 250.4 11.2
2002-11-08 09:12:39 51°11.548 2°45.181 253.8 15.1 250.2 11.2
2002-11-08 09:12:43 51°11.542 2°45.156 253.8 15.1 250.1 11.2
2002-11-08 09:12:48 51°11.535 2°45.125 253.5 15.1 250 11.2
2002-11-08 09:12:53 51°11.527 2°45.093 253.8 15.1 249.8 11.1
2002-11-08 09:12:59 51°11.519 2°45.056 253.8 15.1 250.1 11.1
2002-11-08 09:13:03 51°11.513 2°45.03 253.8 15.2 250 11.1
2002-11-08 09:13:08 51°11.506 2°44.999 253.8 15.2 250.1 11.1
2002-11-08 09:13:13 51°11.499 2°44.968 253.5 15.1 250 11.1
2002-11-08 09:13:19 51°11.49 2°44.93 254 15.1 249.7 11.1
2002-11-08 09:13:23 51°11.484 2°44.905 253.8 15.1 250.2 11.1
2002-11-08 09:13:28 51°11.477 2°44.873 254.2 15.2 250 11.1
2002-11-08 09:13:33 51°11.47 2°44.842 253.3 15.1 250 11.1
2002-11-08 09:13:39 51°11.461 2°44.804 254 15.2 249.8 11.1
2002-11-08 09:13:43 51°11.455 2°44.779 253.7 15.2 250.1 11.1
2002-11-08 09:13:48 51°11.448 2°44.748 253.5 15.2 249.8 11.1
2002-11-08 09:13:53 51°11.44 2°44.716 253.7 15.2 249.6 11.1
2002-11-08 09:13:59 51°11.432 2°44.678 253.7 15.3 249.6 11.1
2002-11-08 09:14:04 51°11.424 2°44.646 253.7 15.3 249.5 11.1
2002-11-08 09:14:08 51°11.419 2°44.621 254 15.3 249.7 11.1
2002-11-08 09:14:12 51°11.413 2°44.596 253.5 15.3 249.6 11
2002-11-08 09:14:19 51°11.402 2°44.552 253.5 15.3 249.4 11.1
2002-11-08 09:14:24 51°11.395 2°44.52 253.7 15.3 249.4 11.1
2002-11-08 09:14:28 51°11.389 2°44.495 254 15.3 249.9 11.1
2002-11-08 09:14:33 51°11.382 2°44.463 254.3 15.2 249.9 11.1
2002-11-08 09:14:39 51°11.374 2°44.425 253.7 15.2 250.6 11
2002-11-08 09:14:43 51°11.367 2°44.4 254 15.2 249.4 11.1
2002-11-08 09:14:48 51°11.361 2°44.368 254 15.2 251.1 11.1
2002-11-08 09:14:52 51°11.354 2°44.343 254 15.2 249.9 11.1
2002-11-08 09:14:59 51°11.344 2°44.298 253.5 15.2 250.7 11.1
2002-11-08 09:15:04 51°11.338 2°44.266 254.3 15.3 249.9 11.1
2002-11-08 09:15:08 51°11.332 2°44.241 254.8 15.3 250.9 11
2002-11-08 09:15:14 51°11.324 2°44.203 255.8 15.2 251.1 11
2002-11-08 09:15:19 51°11.318 2°44.171 256 15.2 252.3 11
2002-11-08 09:15:23 51°11.313 2°44.145 256.2 15.2 252.7 11.1
2002-11-08 09:15:28 51°11.307 2°44.113 258 15.3 253 11.1
2002-11-08 09:15:33 51°11.301 2°44.08 258.3 15.3 254.4 11.1
2002-11-08 09:15:39 51°11.295 2°44.041 259.2 15.2 254.4 11.1
2002-11-08 09:15:44 51°11.289 2°44.009 259.2 15.2 255.4 11.1
2002-11-08 09:15:49 51°11.284 2°43.977 259.5 15.2 254.8 11.1
2002-11-08 09:15:54 51°11.279 2°43.944 259.7 15.2 255.3 11.1
2002-11-08 09:15:59 51°11.273 2°43.912 260 15.2 255.2 11.1
2002-11-08 09:16:04 51°11.268 2°43.879 260.3 15.2 255.7 11.1
2002-11-08 09:16:08 51°11.264 2°43.853 260.3 15.2 255.4 11.1
2002-11-08 09:16:12 51°11.259 2°43.827 260.3 15.3 255.6 11.1
2002-11-08 09:16:19 51°11.252 2°43.781 260.7 15.3 255.5 11.1
2002-11-08 09:16:23 51°11.248 2°43.755 259.8 15.3 255.7 11.1
2002-11-08 09:16:28 51°11.242 2°43.722 259.7 15.3 255.3 11.1
2002-11-08 09:16:32 51°11.238 2°43.696 259.5 15.3 255.5 11.1
2002-11-08 09:16:39 51°11.231 2°43.65 259.7 15.3 255.5 11.1
2002-11-08 09:16:43 51°11.226 2°43.624 259.8 15.3 255.2 11.1
2002-11-08 09:16:48 51°11.221 2°43.592 259.8 15.3 255.3 11
2002-11-08 09:16:54 51°11.215 2°43.553 260.5 15.3 255.4 11
2002-11-08 09:16:59 51°11.21 2°43.52 261 15.3 256.2 11
2002-11-08 09:17:03 51°11.206 2°43.494 261.7 15.3 256.5 11
2002-11-08 09:17:08 51°11.202 2°43.461 262 15.2 256.9 11
2002-11-08 09:17:13 51°11.197 2°43.428 262.2 15.2 257.2 11.1
2002-11-08 09:17:19 51°11.191 2°43.389 261.8 15.2 257.1 11
2002-11-08 09:17:24 51°11.187 2°43.356 262.2 15.2 257.6 11.1
2002-11-08 09:17:28 51°11.182 2°43.33 261.7 15.2 256.8 11.1
2002-11-08 09:17:34 51°11.177 2°43.291 262.2 15.2 257.2 11.1
2002-11-08 09:17:39 51°11.172 2°43.258 261.3 15.1 256.7 11.1
2002-11-08 09:17:44 51°11.168 2°43.225 262.7 15.2 256.8 11.1
2002-11-08 09:17:48 51°11.164 2°43.199 261.2 15.2 257.3 11.1
2002-11-08 09:17:52 51°11.16 2°43.173 261 15.2 256.3 11.1
2002-11-08 09:17:59 51°11.152 2°43.128 258.8 15.1 256 11
2002-11-08 09:18:03 51°11.147 2°43.103 257.8 15 253.7 11
2002-11-08 09:18:08 51°11.142 2°43.071 259.7 14.9 254.5 11
2002-11-08 09:18:14 51°11.137 2°43.035 261.5 14.5 255.8 11
2002-11-08 09:18:19 51°11.133 2°43.006 262.8 13.8 257.5 11.1
2002-11-08 09:18:23 51°11.13 2°42.985 263.8 13 257.8 11.2
2002-11-08 09:18:28 51°11.127 2°42.96 264.3 12.2 258.5 11.3
2002-11-08 09:18:32 51°11.125 2°42.941 265.2 11.4 259.2 11.4
2002-11-08 09:18:38 51°11.123 2°42.914 266.8 10.6 260.7 11.4
2002-11-08 09:18:44 51°11.121 2°42.888 267.5 10.1 261.3 11.4
2002-11-08 09:18:48 51°11.119 2°42.873 268.2 9.4 262.2 11.4
2002-11-08 09:18:53 51°11.118 2°42.854 268.7 8.8 262.3 11.4
2002-11-08 09:18:59 51°11.116 2°42.833 269.2 8.3 262.5 11.4
2002-11-08 09:19:03 51°11.115 2°42.82 268.7 7.9 262.4 11.4
2002-11-08 09:19:08 51°11.113 2°42.804 267.7 7.5 262 11.4
2002-11-08 09:19:12 51°11.112 2°42.792 266.7 7.1 260.6 11.4
2002-11-08 09:19:19 51°11.11 2°42.772 264.8 6.7 259.6 11.4
2002-11-08 09:19:23 51°11.108 2°42.761 262.8 6.5 258.5 11.4
2002-11-08 09:19:28 51°11.106 2°42.748 261.2 6.1 257.3 11.4
2002-11-08 09:19:34 51°11.103 2°42.734 259.3 5.9 255.6 11.4
2002-11-08 09:19:39 51°11.101 2°42.723 257.7 5.5 254.5 11.4
2002-11-08 09:19:43 51°11.1 2°42.716 258.5 5.1 253.9 11.4
2002-11-08 09:19:48 51°11.099 2°42.708 262.2 4.3 254.1 11.4
2002-11-08 09:19:52 51°11.098 2°42.702 266.5 3.7 256.1 11.4
2002-11-08 09:19:59 51°11.097 2°42.694 270.8 3 258.6 11.5
2002-11-08 09:20:04 51°11.097 2°42.689 275 2.6 260.4 11.4
2002-11-08 09:20:08 51°11.097 2°42.686 279.7 2 259.3 11.4
2002-11-08 09:20:14 51°11.096 2°42.683 283.5 1.7 260.4 11.4
2002-11-08 09:20:19 51°11.095 2°42.681 286.7 1.2 249.4 11.4
2002-11-08 09:20:23 51°11.095 2°42.68 290.5 0.9 243.7 11.4
2002-11-08 09:20:28 51°11.094 2°42.678 293.7 0.8 237.2 11.4
2002-11-08 09:20:33 51°11.094 2°42.677 296 0.7 241.1 11.4
2002-11-08 09:20:39 51°11.093 2°42.675 298.3 0.8 242.3 11.5
2002-11-08 09:20:44 51°11.093 2°42.674 300.7 0.8 242.6 -999
2002-11-08 09:20:50 51°11.092 2°42.671 302.7 0.8 240.3 -999
2002-11-08 09:20:55 51°11.091 2°42.67 304.3 0.9 240.1 -999
2002-11-08 09:21:00 51°11.091 2°42.668 305.5 0.9 239.3 -999
2002-11-08 09:21:04 51°11.091 2°42.667 306.8 0.8 242.5 -999
2002-11-08 09:21:10 51°11.09 2°42.665 308 0.8 244.2 -999
2002-11-08 09:21:15 51°11.089 2°42.663 308.8 0.8 244.9 -999
2002-11-08 09:21:20 51°11.089 2°42.661 310 0.8 243.7 -999
2002-11-08 09:21:24 51°11.089 2°42.66 311 0.8 244.9 -999
2002-11-08 09:21:30 51°11.088 2°42.658 311.8 0.8 247.2 -999
2002-11-08 09:21:34 51°11.088 2°42.657 312.3 0.8 250.8 11.4
2002-11-08 09:21:39 51°11.088 2°42.655 313.2 0.8 250.6 11.3
2002-11-08 09:21:44 51°11.087 2°42.653 313.5 0.8 248.3 11.4
2002-11-08 09:21:48 51°11.087 2°42.652 314 0.9 246.8 11.4
2002-11-08 09:21:53 51°11.086 2°42.651 314.3 0.8 245.2 11.4
2002-11-08 09:21:59 51°11.086 2°42.648 314.8 0.8 247.1 -999
2002-11-08 09:22:04 51°11.085 2°42.647 315.7 0.8 251.8 -999
2002-11-08 09:22:09 51°11.085 2°42.645 316 0.8 254.2 11.4
2002-11-08 09:22:12 51°11.085 2°42.644 316.2 0.8 253.1 11.4
2002-11-08 09:22:19 51°11.085 2°42.642 316.7 0.8 254 11.4
2002-11-08 09:22:23 51°11.084 2°42.641 317 0.8 255.7 11.4
2002-11-08 09:22:28 51°11.084 2°42.639 317.3 0.8 254.1 -999
2002-11-08 09:22:35 51°11.083 2°42.636 318 0.8 252.3 -999
2002-11-08 09:22:39 51°11.083 2°42.635 318.5 0.8 253.6 11.3
2002-11-08 09:22:44 51°11.083 2°42.633 319.2 0.8 257.2 11.4
2002-11-08 09:22:48 51°11.083 2°42.632 319.3 0.8 260.3 11.4
2002-11-08 09:22:54 51°11.083 2°42.63 320 0.8 260.1 11.4
2002-11-08 09:22:59 51°11.083 2°42.629 320.7 0.7 261.7 11.5
2002-11-08 09:23:03 51°11.083 2°42.627 321 0.8 265.5 11.5
2002-11-08 09:23:08 51°11.083 2°42.625 321.5 0.8 269.7 11.5
2002-11-08 09:23:12 51°11.083 2°42.624 321.7 0.9 274.3 11.5
2002-11-08 09:23:19 51°11.083 2°42.621 321.8 1 275.6 11.4
2002-11-08 09:23:23 51°11.083 2°42.619 322.5 1 278.2 11.4
2002-11-08 09:23:28 51°11.084 2°42.616 322.7 1.1 278.6 11.4
2002-11-08 09:23:34 51°11.084 2°42.613 322.8 1.1 281.9 11.4
2002-11-08 09:23:38 51°11.084 2°42.611 323.2 1.2 282.2 11.4
2002-11-08 09:23:44 51°11.085 2°42.608 323.3 1.2 281.8 11.4
2002-11-08 09:23:48 51°11.086 2°42.605 323.3 1.4 285.6 11.4
2002-11-08 09:23:53 51°11.086 2°42.602 323.3 1.5 288.4 11.4
2002-11-08 09:23:59 51°11.088 2°42.598 323.2 1.6 291.2 11.4
2002-11-08 09:24:03 51°11.088 2°42.596 323.2 1.7 293.1 11.3
2002-11-08 09:24:08 51°11.089 2°42.592 323.2 1.8 294.4 11.3
2002-11-08 09:24:12 51°11.09 2°42.589 323.3 1.8 295 11.4
2002-11-08 09:24:19 51°11.092 2°42.584 323.5 1.9 295.9 11.4
2002-11-08 09:24:24 51°11.094 2°42.58 323.5 2.1 296.1 11.4
2002-11-08 09:24:28 51°11.095 2°42.576 323.5 2.2 297.4 11.4
2002-11-08 09:24:34 51°11.096 2°42.571 323.7 2.2 297 11.4
2002-11-08 09:24:39 51°11.098 2°42.567 323.5 2.3 298.1 11.4
2002-11-08 09:24:44 51°11.1 2°42.562 323.5 2.4 300 11.4
2002-11-08 09:24:48 51°11.101 2°42.558 324 2.5 299.8 11.4
2002-11-08 09:24:52 51°11.103 2°42.554 324.3 2.5 300.2 11.3
2002-11-08 09:24:59 51°11.105 2°42.547 324.8 2.6 301.2 11.3
2002-11-08 09:25:04 51°11.107 2°42.542 325.2 2.6 301.9 11.4
2002-11-08 09:25:09 51°11.11 2°42.537 325.8 2.7 302.6 11.4
2002-11-08 09:25:12 51°11.111 2°42.534 326.3 2.7 303.9 11.3
2002-11-08 09:25:19 51°11.114 2°42.527 327.2 2.7 303.8 11.3
2002-11-08 09:25:24 51°11.116 2°42.522 327.7 2.7 304.6 11.3
2002-11-08 09:25:28 51°11.118 2°42.518 328.3 2.8 305 11.3
2002-11-08 09:25:32 51°11.12 2°42.514 329.5 2.8 305.8 11.3
2002-11-08 09:25:39 51°11.123 2°42.507 331 2.9 307.3 11.3
2002-11-08 09:25:43 51°11.125 2°42.503 332.3 2.9 308.9 11.3
2002-11-08 09:25:48 51°11.127 2°42.498 334.2 2.8 309.8 11.2
2002-11-08 09:25:54 51°11.13 2°42.493 335.5 2.8 310.2 11.3
2002-11-08 09:25:59 51°11.133 2°42.489 336.8 2.7 312.1 11.3
2002-11-08 09:26:04 51°11.135 2°42.485 337.8 2.7 312.1 11.3
2002-11-08 09:26:08 51°11.137 2°42.481 338.8 2.6 311.5 11.3
2002-11-08 09:26:12 51°11.139 2°42.478 339.5 2.6 312.7 11.3
2002-11-08 09:26:19 51°11.142 2°42.473 340.2 2.5 313.3 11.3
2002-11-08 09:26:23 51°11.144 2°42.47 340.8 2.4 313.4 11.2
2002-11-08 09:26:28 51°11.147 2°42.466 340.8 2.4 312.8 11.2
2002-11-08 09:26:34 51°11.149 2°42.462 340.8 2.3 313.9 11.2
2002-11-08 09:26:38 51°11.151 2°42.459 340.8 2.3 313.3 11.1
2002-11-08 09:26:44 51°11.154 2°42.455 340.7 2.2 314.1 11.1
2002-11-08 09:26:48 51°11.155 2°42.452 340.3 2.2 312.5 11.1
2002-11-08 09:26:54 51°11.157 2°42.448 340.2 2.1 312.5 11.1
2002-11-08 09:26:59 51°11.159 2°42.444 340.2 2 310.2 11.1
2002-11-08 09:27:03 51°11.161 2°42.442 340 2 310.2 11.2
2002-11-08 09:27:08 51°11.162 2°42.438 339.3 1.9 309.5 11.1
2002-11-08 09:27:12 51°11.164 2°42.436 339 1.9 309.4 11.1
2002-11-08 09:27:19 51°11.166 2°42.431 338.5 1.9 308.8 11.1
2002-11-08 09:27:24 51°11.168 2°42.428 338.2 1.9 308.4 11.1
2002-11-08 09:27:28 51°11.169 2°42.425 337.7 1.9 308.3 11.1
2002-11-08 09:27:34 51°11.171 2°42.422 336.8 1.8 307.5 11
2002-11-08 09:27:39 51°11.172 2°42.418 336.7 1.8 305.8 11
2002-11-08 09:27:44 51°11.174 2°42.415 336 1.8 306.3 11
2002-11-08 09:27:48 51°11.175 2°42.413 335.2 1.8 305 11
2002-11-08 09:27:52 51°11.176 2°42.41 334.5 1.7 303.8 11
2002-11-08 09:27:59 51°11.178 2°42.405 333.8 1.7 302.7 11
2002-11-08 09:28:03 51°11.178 2°42.403 333.2 1.7 303 11
2002-11-08 09:28:08 51°11.18 2°42.4 332.3 1.7 304.2 10.9
2002-11-08 09:28:14 51°11.181 2°42.396 331.7 1.6 304.1 11
2002-11-08 09:28:19 51°11.182 2°42.393 331.2 1.6 301.2 11
2002-11-08 09:28:24 51°11.183 2°42.39 330.3 1.5 299.3 11
2002-11-08 09:28:28 51°11.184 2°42.388 329.7 1.5 296.2 11
2002-11-08 09:28:34 51°11.185 2°42.384 329.2 1.5 296.2 10.9
2002-11-08 09:28:39 51°11.186 2°42.381 328.5 1.5 296.2 10.9
2002-11-08 09:28:44 51°11.187 2°42.378 328.3 1.4 296.7 10.9
2002-11-08 09:28:48 51°11.187 2°42.376 327.5 1.4 297.3 10.9
2002-11-08 09:28:54 51°11.188 2°42.373 326.8 1.4 297.5 10.9
2002-11-08 09:28:58 51°11.189 2°42.371 326.5 1.4 295.1 10.9
2002-11-08 09:29:04 51°11.19 2°42.368 326.3 1.3 295.6 10.9
2002-11-08 09:29:08 51°11.191 2°42.366 326.3 1.3 295.2 10.9
2002-11-08 09:29:12 51°11.191 2°42.363 326.7 1.3 293.6 10.9
2002-11-08 09:29:19 51°11.192 2°42.36 326.3 1.3 292.2 10.9
2002-11-08 09:29:23 51°11.193 2°42.358 326.2 1.2 291 10.8
2002-11-08 09:29:28 51°11.193 2°42.356 325.7 1.2 290.4 10.8
2002-11-08 09:29:32 51°11.194 2°42.354 325.2 1.2 289.1 10.9
2002-11-08 09:29:39 51°11.194 2°42.35 324.8 1.2 290 10.9
2002-11-08 09:29:43 51°11.195 2°42.348 324.2 1.2 289.8 10.9
2002-11-08 09:29:48 51°11.196 2°42.345 323.7 1.2 290 10.8
2002-11-08 09:29:54 51°11.196 2°42.343 323.2 1.2 289.8 10.8
2002-11-08 09:29:59 51°11.197 2°42.34 322.3 1.2 287.2 10.9
2002-11-08 09:30:03 51°11.197 2°42.339 322 1.1 286.2 10.9
2002-11-08 09:30:08 51°11.198 2°42.336 321.3 1.2 284.6 10.9
2002-11-08 09:30:13 51°11.198 2°42.333 320.5 1.2 285.1 10.8
2002-11-08 09:30:19 51°11.198 2°42.33 320 1.2 284.8 10.8
2002-11-08 09:30:24 51°11.199 2°42.328 319.3 1.1 284.9 10.9
2002-11-08 09:30:29 51°11.199 2°42.326 318.3 1.1 283 10.9
2002-11-08 09:30:34 51°11.199 2°42.323 317.8 1.1 282.4 10.9
2002-11-08 09:30:39 51°11.2 2°42.321 317.3 1.2 281.6 10.9
2002-11-08 09:30:44 51°11.2 2°42.318 316.7 1.2 281.9 10.9
2002-11-08 09:30:48 51°11.2 2°42.316 315.8 1.2 281.7 10.9
2002-11-08 09:30:54 51°11.201 2°42.314 315.3 1.2 280.6 10.9
2002-11-08 09:30:59 51°11.201 2°42.311 314.7 1.1 280.5 10.9
2002-11-08 09:31:04 51°11.201 2°42.309 314.2 1.2 280.9 10.9
2002-11-08 09:31:09 51°11.201 2°42.306 313.2 1.2 280.1 10.9
2002-11-08 09:31:12 51°11.202 2°42.305 312.5 1.1 278.2 10.9
2002-11-08 09:31:19 51°11.202 2°42.302 311.5 1.1 277.4 10.9
2002-11-08 09:31:24 51°11.202 2°42.299 310.7 1.1 276.8 10.8
2002-11-08 09:31:28 51°11.202 2°42.297 309.5 1.1 275.8 10.8
2002-11-08 09:31:34 51°11.202 2°42.294 308.3 1.1 273.6 10.8
2002-11-08 09:31:39 51°11.202 2°42.292 307.5 1.1 272.6 10.8
2002-11-08 09:31:43 51°11.203 2°42.29 306.7 1.1 275 10.9
2002-11-08 09:31:48 51°11.203 2°42.288 306 1.1 276.5 10.9
2002-11-08 09:31:54 51°11.203 2°42.285 306 1.1 279.1 10.8
2002-11-08 09:31:59 51°11.203 2°42.282 305.7 1.1 280.8 10.8
2002-11-08 09:32:03 51°11.204 2°42.281 305.2 1.1 280.2 10.9
2002-11-08 09:32:09 51°11.204 2°42.278 305 1.1 277.3 10.9
2002-11-08 09:32:12 51°11.204 2°42.276 304.5 1.1 277.6 10.8
2002-11-08 09:32:19 51°11.204 2°42.273 304.2 1 275.8 10.8
2002-11-08 09:32:23 51°11.204 2°42.271 304 1.1 277.1 10.8
2002-11-08 09:32:28 51°11.205 2°42.269 303.5 1.1 279 10.8
2002-11-08 09:32:34 51°11.205 2°42.266 303.3 1.1 278.9 10.7
2002-11-08 09:32:39 51°11.205 2°42.264 303 1.1 278.7 10.7
2002-11-08 09:32:43 51°11.205 2°42.262 303 1.1 278.9 10.7
2002-11-08 09:32:48 51°11.205 2°42.26 303 1.1 279.2 10.7
2002-11-08 09:32:52 51°11.205 2°42.258 302.5 1.1 280.1 10.8
2002-11-08 09:32:59 51°11.206 2°42.255 302.3 1.1 280.4 10.8
2002-11-08 09:33:03 51°11.206 2°42.253 302.3 1.1 281.3 10.7
2002-11-08 09:33:08 51°11.206 2°42.251 302.2 1 281.8 10.7
2002-11-08 09:33:13 51°11.206 2°42.248 302 1 279.8 10.8
2002-11-08 09:33:19 51°11.207 2°42.246 302 1 280.4 10.8
2002-11-08 09:33:24 51°11.207 2°42.244 302 1 278.6 10.8
2002-11-08 09:33:28 51°11.207 2°42.242 302.3 1 278.3 10.8
2002-11-08 09:33:33 51°11.208 2°42.239 302.3 1 279.4 10.8
2002-11-08 09:33:39 51°11.208 2°42.237 302.3 1 279.2 10.8
2002-11-08 09:33:43 51°11.208 2°42.235 302.5 1.1 279.7 10.8
2002-11-08 09:33:49 51°11.208 2°42.233 302 1 278.9 10.8
2002-11-08 09:33:54 51°11.208 2°42.231 301.8 0.9 275.2 10.8
2002-11-08 09:33:58 51°11.208 2°42.229 301.8 0.9 274.8 10.7
2002-11-08 09:34:04 51°11.209 2°42.226 302.2 0.9 277.3 10.6
2002-11-08 09:34:08 51°11.209 2°42.225 302.2 0.9 278.9 10.6
2002-11-08 09:34:12 51°11.209 2°42.223 301.8 0.9 277 10.6
2002-11-08 09:34:19 51°11.209 2°42.22 301.5 0.9 273.7 10.7
2002-11-08 09:34:23 51°11.209 2°42.219 301 0.9 272.8 10.7
2002-11-08 09:34:28 51°11.209 2°42.216 300.7 0.9 272.5 10.7
2002-11-08 09:34:34 51°11.21 2°42.214 300.7 0.9 277.1 10.8
2002-11-08 09:34:39 51°11.21 2°42.212 300.5 0.9 278.3 10.8
2002-11-08 09:34:43 51°11.21 2°42.21 300.3 0.9 277.8 10.9
2002-11-08 09:34:48 51°11.21 2°42.209 300.5 0.9 276.9 10.9
2002-11-08 09:34:52 51°11.21 2°42.207 300.5 0.9 275.6 10.9
2002-11-08 09:34:59 51°11.21 2°42.204 300.7 0.9 277 10.9
2002-11-08 09:35:03 51°11.211 2°42.203 300.8 0.9 275.2 10.9
2002-11-08 09:35:08 51°11.211 2°42.201 300.8 0.9 276.3 10.9
2002-11-08 09:35:13 51°11.211 2°42.199 300.8 0.9 277.6 10.9
2002-11-08 09:35:19 51°11.211 2°42.197 300.7 0.9 277.8 10.8
2002-11-08 09:35:24 51°11.211 2°42.195 300.8 0.9 274.5 10.8
2002-11-08 09:35:28 51°11.211 2°42.193 301 0.9 273.8 10.8
2002-11-08 09:35:33 51°11.211 2°42.192 301.2 0.8 275.4 10.8
2002-11-08 09:35:39 51°11.211 2°42.189 301.3 0.8 274.9 10.8
2002-11-08 09:35:43 51°11.211 2°42.188 301.7 0.9 271.2 10.8
2002-11-08 09:35:48 51°11.212 2°42.186 302 0.8 273.9 10.8
2002-11-08 09:35:54 51°11.213 2°42.183 302.2 0.8 278.7 10.8
2002-11-08 09:35:59 51°11.213 2°42.182 303.2 0.8 283.1 10.8
2002-11-08 09:36:04 51°11.213 2°42.18 303.3 0.8 282.7 10.7
2002-11-08 09:36:09 51°11.213 2°42.178 303.7 0.8 281.5 10.7
2002-11-08 09:36:12 51°11.214 2°42.177 304 0.8 285.3 10.8
2002-11-08 09:36:19 51°11.214 2°42.175 303.7 0.8 283.6 10.7
2002-11-08 09:36:24 51°11.214 2°42.173 304 0.8 281.9 10.8
2002-11-08 09:36:28 51°11.214 2°42.172 304 0.8 276.4 10.8
2002-11-08 09:36:34 51°11.214 2°42.17 304.2 0.8 270.6 10.7
2002-11-08 09:36:39 51°11.214 2°42.168 304 0.8 267.2 10.8
2002-11-08 09:36:44 51°11.214 2°42.167 303.3 0.7 269.7 10.7
2002-11-08 09:36:48 51°11.214 2°42.165 303 0.7 268.7 10.8
2002-11-08 09:36:53 51°11.214 2°42.164 302.8 0.6 265.2 10.8
2002-11-08 09:36:59 51°11.214 2°42.162 302.5 0.6 265.3 10.8
2002-11-08 09:37:04 51°11.214 2°42.161 302.8 0.6 273 10.8
2002-11-08 09:37:09 51°11.214 2°42.159 303.2 0.6 273.7 10.8
2002-11-08 09:37:14 51°11.214 2°42.158 303.5 0.6 273.5 10.9
2002-11-08 09:37:19 51°11.214 2°42.157 303.8 0.6 273.2 10.8
2002-11-08 09:37:24 51°11.214 2°42.155 304.2 0.6 272.9 10.9
2002-11-08 09:37:29 51°11.214 2°42.153 304.7 0.7 273.6 10.8
2002-11-08 09:37:33 51°11.214 2°42.152 304.7 0.7 273.1 10.8
2002-11-08 09:37:39 51°11.214 2°42.151 304.7 0.7 272 10.9
2002-11-08 09:37:44 51°11.214 2°42.15 304.5 0.7 271.5 10.9
2002-11-08 09:37:48 51°11.214 2°42.148 304.3 0.6 272.2 10.9
2002-11-08 09:37:54 51°11.214 2°42.147 304.5 0.6 267.8 10.9
2002-11-08 09:37:59 51°11.213 2°42.145 304.2 0.6 263.3 10.9
2002-11-08 09:38:03 51°11.213 2°42.144 303.7 0.6 259.2 10.9
2002-11-08 09:38:08 51°11.213 2°42.143 303.8 0.5 263.6 10.9
2002-11-08 09:38:12 51°11.213 2°42.142 303.8 0.6 263.7 10.9
2002-11-08 09:38:19 51°11.213 2°42.14 304.3 0.5 266.9 10.9
2002-11-08 09:38:23 51°11.213 2°42.139 304.7 0.6 267.6 11
2002-11-08 09:38:28 51°11.213 2°42.138 305.3 0.5 268.8 10.9
2002-11-08 09:38:34 51°11.213 2°42.137 305.5 0.6 262.7 10.9
2002-11-08 09:38:38 51°11.213 2°42.136 305.3 0.5 270.1 10.8
2002-11-08 09:38:44 51°11.213 2°42.135 305.8 0.6 267.4 10.8
2002-11-08 09:38:48 51°11.213 2°42.134 306.3 0.5 269.6 10.9
2002-11-08 09:38:54 51°11.213 2°42.133 306.7 0.5 270.2 10.9
2002-11-08 09:38:59 51°11.213 2°42.132 307 0.5 275.2 10.9
2002-11-08 09:39:03 51°11.213 2°42.131 308 0.5 273.3 10.9
2002-11-08 09:39:08 51°11.213 2°42.13 308.8 0.5 277.4 10.9
2002-11-08 09:39:12 51°11.213 2°42.129 309 0.5 271.9 10.9
2002-11-08 09:39:19 51°11.213 2°42.128 309.8 0.5 270 10.9
2002-11-08 09:39:24 51°11.213 2°42.127 310.5 0.5 268.1 10.9
2002-11-08 09:39:28 51°11.213 2°42.126 310.7 0.5 266.7 10.9
2002-11-08 09:39:32 51°11.213 2°42.125 311.2 0.5 263.5 10.9
2002-11-08 09:39:39 51°11.213 2°42.123 312 0.5 263.8 10.9
2002-11-08 09:39:44 51°11.213 2°42.123 312.7 0.4 264.5 10.9
2002-11-08 09:39:48 51°11.213 2°42.122 313.5 0.4 267.8 10.9
2002-11-08 09:39:54 51°11.213 2°42.121 313.7 0.5 266.5 10.9
2002-11-08 09:39:59 51°11.213 2°42.12 314.8 0.4 269.9 10.9
2002-11-08 09:40:04 51°11.213 2°42.12 315.8 0.4 264.2 10.9
2002-11-08 09:40:08 51°11.213 2°42.119 316.3 0.4 264.5 10.9
2002-11-08 09:40:12 51°11.213 2°42.118 317.2 0.4 265.9 10.9
2002-11-08 09:40:19 51°11.213 2°42.117 317.8 0.4 268.3 11
2002-11-08 09:40:24 51°11.213 2°42.116 318.5 0.4 263.1 10.9
2002-11-08 09:40:28 51°11.213 2°42.116 319.7 0.4 257.4 10.9
2002-11-08 09:40:32 51°11.213 2°42.115 320 0.4 260.1 11
2002-11-08 09:40:39 51°11.212 2°42.113 320.7 0.4 263.8 10.9
2002-11-08 09:40:44 51°11.212 2°42.112 321.3 0.5 264.5 10.9
2002-11-08 09:40:48 51°11.212 2°42.111 322 0.5 262.2 10.9
2002-11-08 09:40:52 51°11.212 2°42.11 322.3 0.6 258.2 10.9
2002-11-08 09:40:59 51°11.211 2°42.109 322.2 0.6 252.9 10.9
2002-11-08 09:41:03 51°11.211 2°42.108 322.2 0.6 251.6 10.9
2002-11-08 09:41:08 51°11.211 2°42.107 322.3 0.5 252.8 10.9
2002-11-08 09:41:12 51°11.211 2°42.106 323 0.5 254.5 10.9
2002-11-08 09:41:19 51°11.211 2°42.105 323.5 0.5 256 10.9
2002-11-08 09:41:24 51°11.211 2°42.104 323.8 0.5 260.2 11
2002-11-08 09:41:28 51°11.211 2°42.103 323.8 0.5 260.1 10.9
2002-11-08 09:41:34 51°11.211 2°42.102 323.8 0.5 258.3 10.9
2002-11-08 09:41:39 51°11.211 2°42.1 324 0.6 256.4 10.9
2002-11-08 09:41:44 51°11.211 2°42.099 324 0.5 262.2 10.9
2002-11-08 09:41:48 51°11.211 2°42.099 324.5 0.5 261 10.9
2002-11-08 09:41:53 51°11.211 2°42.098 324.8 0.5 257.6 10.9
2002-11-08 09:41:59 51°11.211 2°42.097 325.3 0.5 258.7 10.9
2002-11-08 09:42:03 51°11.211 2°42.096 325.5 0.5 263 10.9
2002-11-08 09:42:08 51°11.211 2°42.094 326 0.5 266.2 10.9
2002-11-08 09:42:12 51°11.211 2°42.093 326.2 0.5 269.4 10.9
2002-11-08 09:42:19 51°11.211 2°42.092 326.5 0.5 266.7 10.9
2002-11-08 09:42:24 51°11.211 2°42.091 326.3 0.5 265.7 10.9
2002-11-08 09:42:28 51°11.211 2°42.09 326.3 0.5 266.4 10.9
2002-11-08 09:42:34 51°11.211 2°42.089 326.3 0.5 268.9 10.9
2002-11-08 09:42:39 51°11.211 2°42.088 326.5 0.5 272.6 10.9
2002-11-08 09:42:44 51°11.211 2°42.086 326.7 0.5 272.1 10.9
2002-11-08 09:42:48 51°11.211 2°42.085 326.8 0.6 272.6 10.9
2002-11-08 09:42:53 51°11.211 2°42.084 326.5 0.6 274.2 10.9
2002-11-08 09:42:59 51°11.211 2°42.083 326.3 0.6 273.5 10.9
2002-11-08 09:43:03 51°11.211 2°42.082 326.7 0.6 274.6 10.9
2002-11-08 09:43:08 51°11.211 2°42.081 326.5 0.6 274.1 10.9
2002-11-08 09:43:12 51°11.211 2°42.08 326.5 0.5 276.5 10.9
2002-11-08 09:43:19 51°11.211 2°42.079 326.3 0.5 276.2 10.9
2002-11-08 09:43:24 51°11.211 2°42.078 326.3 0.5 272.9 10.9
2002-11-08 09:43:28 51°11.211 2°42.077 326.2 0.5 268.1 10.9
2002-11-08 09:43:34 51°11.211 2°42.075 326.2 0.5 275 10.9
2002-11-08 09:43:39 51°11.211 2°42.074 325.8 0.6 279.5 10.9
2002-11-08 09:43:44 51°11.212 2°42.073 326 0.6 278.6 10.8
2002-11-08 09:43:48 51°11.212 2°42.072 325.5 0.6 279.1 10.8
2002-11-08 09:43:53 51°11.212 2°42.07 325.7 0.6 278.6 10.8
2002-11-08 09:43:59 51°11.212 2°42.069 325.3 0.6 278.3 10.8
2002-11-08 09:44:03 51°11.212 2°42.068 325 0.6 277.7 10.8
2002-11-08 09:44:08 51°11.212 2°42.067 324.5 0.6 276.9 10.9
2002-11-08 09:44:14 51°11.212 2°42.065 324.5 0.5 271.2 10.8
2002-11-08 09:44:19 51°11.212 2°42.064 324.5 0.6 273.7 10.8
2002-11-08 09:44:24 51°11.212 2°42.062 324 0.7 271.8 10.9
2002-11-08 09:44:28 51°11.213 2°42.061 323.5 0.7 280.9 10.9
2002-11-08 09:44:32 51°11.213 2°42.06 322.8 0.6 283.3 10.9
2002-11-08 09:44:39 51°11.213 2°42.059 322.3 0.6 285.8 10.9
2002-11-08 09:44:44 51°11.213 2°42.057 322.2 0.6 281.3 10.9
2002-11-08 09:44:48 51°11.213 2°42.057 322 0.6 279.6 11
2002-11-08 09:44:54 51°11.213 2°42.055 321.5 0.6 275.5 11
2002-11-08 09:44:59 51°11.213 2°42.053 321 0.6 279.6 10.9
2002-11-08 09:45:03 51°11.214 2°42.052 320.3 0.7 281.3 11
2002-11-08 09:45:09 51°11.214 2°42.05 320.3 0.7 279.3 10.9
2002-11-08 09:45:14 51°11.214 2°42.049 319.5 0.7 276.8 10.9
2002-11-08 09:45:19 51°11.214 2°42.047 319.2 0.8 278.4 10.9
2002-11-08 09:45:24 51°11.214 2°42.046 319 0.8 278.2 11
2002-11-08 09:45:28 51°11.214 2°42.045 318 0.8 280.1 11
2002-11-08 09:45:34 51°11.214 2°42.043 317.3 0.8 282.5 11
2002-11-08 09:45:39 51°11.215 2°42.041 316.8 0.8 280 11
2002-11-08 09:45:43 51°11.215 2°42.04 316.2 0.8 279.7 11
2002-11-08 09:45:48 51°11.215 2°42.038 315.8 0.8 279.4 11
2002-11-08 09:45:53 51°11.215 2°42.037 315.3 0.8 278.2 11
2002-11-08 09:45:59 51°11.215 2°42.035 314.8 0.8 276.8 11
2002-11-08 09:46:03 51°11.215 2°42.033 314.7 0.8 278.8 10.8
2002-11-08 09:46:08 51°11.215 2°42.032 313.8 0.8 282.8 11
2002-11-08 09:46:14 51°11.216 2°42.03 313.5 0.9 278.4 11
2002-11-08 09:46:19 51°11.216 2°42.028 313 0.8 276.8 11
2002-11-08 09:46:24 51°11.216 2°42.027 312.5 0.8 275.3 11
2002-11-08 09:46:28 51°11.216 2°42.026 311.8 0.8 271.3 11
2002-11-08 09:46:34 51°11.216 2°42.024 311 0.8 264.7 11
2002-11-08 09:46:39 51°11.216 2°42.022 310.8 0.7 268.1 10.9
2002-11-08 09:46:44 51°11.216 2°42.02 310.2 0.7 269.6 10.9
2002-11-08 09:46:48 51°11.216 2°42.019 309.8 0.7 271.8 10.9
2002-11-08 09:46:54 51°11.216 2°42.017 309.3 0.7 272.7 10.9
2002-11-08 09:46:59 51°11.216 2°42.016 309 0.8 274.1 10.9
2002-11-08 09:47:04 51°11.216 2°42.014 309 0.8 270.9 10.9
2002-11-08 09:47:08 51°11.216 2°42.013 308.5 0.8 267.4 11
2002-11-08 09:47:12 51°11.216 2°42.012 308 0.7 268.6 11
2002-11-08 09:47:19 51°11.216 2°42.01 307.5 0.7 270 11.1
2002-11-08 09:47:24 51°11.216 2°42.008 307.2 0.7 269.3 11
2002-11-08 09:47:29 51°11.216 2°42.007 306.8 0.7 272.6 11.1
2002-11-08 09:47:34 51°11.216 2°42.005 306.8 0.7 275.4 11.1
2002-11-08 09:47:39 51°11.216 2°42.004 306.3 0.7 275.5 11.1
2002-11-08 09:47:44 51°11.216 2°42.002 306.5 0.7 272.6 11.1
2002-11-08 09:47:48 51°11.216 2°42.001 306.2 0.7 271.2 11.1
2002-11-08 09:47:54 51°11.216 2°41.999 305.8 0.7 269.6 11.1
2002-11-08 09:47:59 51°11.217 2°41.998 306.2 0.7 272.3 11.1
2002-11-08 09:48:04 51°11.217 2°41.996 306.2 0.7 273.2 11.1
2002-11-08 09:48:08 51°11.217 2°41.995 306.7 0.7 280 11.1
2002-11-08 09:48:14 51°11.217 2°41.993 306.5 0.7 282.2 11.1
2002-11-08 09:48:19 51°11.217 2°41.992 306.7 0.7 280.8 11.2
2002-11-08 09:48:23 51°11.217 2°41.991 307 0.7 276.8 11.2
2002-11-08 09:48:28 51°11.217 2°41.99 307 0.6 274.5 11.2
2002-11-08 09:48:32 51°11.217 2°41.989 307.2 0.6 269.2 11.2
2002-11-08 09:48:39 51°11.217 2°41.987 307.3 0.6 266.5 11.2
2002-11-08 09:48:44 51°11.217 2°41.985 307.3 0.6 268.2 11.1
2002-11-08 09:48:48 51°11.217 2°41.984 307.3 0.6 268.7 11.1
2002-11-08 09:48:52 51°11.217 2°41.983 307.2 0.6 266.8 11.1
2002-11-08 09:48:59 51°11.217 2°41.981 307.3 0.6 272 11.1
2002-11-08 09:49:04 51°11.217 2°41.98 307.7 0.6 275.2 11.2
2002-11-08 09:49:08 51°11.217 2°41.979 307.5 0.6 273 11.2
2002-11-08 09:49:14 51°11.217 2°41.977 307.5 0.6 275.2 11.2
2002-11-08 09:49:19 51°11.217 2°41.976 307.5 0.6 275.9 11.2
2002-11-08 09:49:24 51°11.217 2°41.975 307.7 0.6 277.3 11.1
2002-11-08 09:49:28 51°11.218 2°41.974 307.3 0.6 280.3 11.1
2002-11-08 09:49:34 51°11.218 2°41.972 307.2 0.6 279.4 11.1
2002-11-08 09:49:39 51°11.218 2°41.971 307.3 0.7 277.2 11.1
2002-11-08 09:49:43 51°11.218 2°41.97 307.3 0.7 278.4 11.2
2002-11-08 09:49:48 51°11.218 2°41.968 307.2 0.7 278.3 11.2
2002-11-08 09:49:54 51°11.218 2°41.966 307 0.7 275.9 11.2
2002-11-08 09:49:59 51°11.218 2°41.965 307.3 0.7 277.5 11.1
2002-11-08 09:50:04 51°11.218 2°41.964 307 0.6 272 11.1
2002-11-08 09:50:08 51°11.218 2°41.963 307 0.6 268.3 11.1
2002-11-08 09:50:14 51°11.218 2°41.961 307 0.6 272.5 11.1
2002-11-08 09:50:19 51°11.218 2°41.96 306.8 0.6 278 11.1
2002-11-08 09:50:23 51°11.218 2°41.959 307 0.7 279.4 11.1
2002-11-08 09:50:28 51°11.219 2°41.957 307 0.7 281.9 11.2
2002-11-08 09:50:32 51°11.218 2°41.956 306.5 0.7 276.8 11.2
2002-11-08 09:50:39 51°11.218 2°41.954 306.2 0.7 272.8 11.2
2002-11-08 09:50:43 51°11.219 2°41.953 306.2 0.7 270.6 11.2
2002-11-08 09:50:48 51°11.219 2°41.952 306.2 0.6 274.8 11.2
2002-11-08 09:50:54 51°11.219 2°41.95 306.2 0.6 272.5 11.2
2002-11-08 09:50:59 51°11.219 2°41.949 306 0.6 274.7 11.2
2002-11-08 09:51:04 51°11.219 2°41.947 305.8 0.6 279 11.1
2002-11-08 09:51:08 51°11.22 2°41.946 305.7 0.7 281 11.2
2002-11-08 09:51:14 51°11.219 2°41.944 305.8 0.7 280.8 11.2
2002-11-08 09:51:19 51°11.22 2°41.943 306 0.7 279.7 11.2
2002-11-08 09:51:24 51°11.22 2°41.941 306 0.7 284.5 11.2
2002-11-08 09:51:28 51°11.22 2°41.94 305.8 0.7 283.9 11.2
2002-11-08 09:51:34 51°11.22 2°41.939 305.7 0.7 281.7 11.2
2002-11-08 09:51:39 51°11.22 2°41.937 305.3 0.7 278.9 11.2
2002-11-08 09:51:43 51°11.221 2°41.936 305 0.7 278.4 11.2
2002-11-08 09:51:48 51°11.221 2°41.934 305.3 0.7 280.9 11.1
2002-11-08 09:51:54 51°11.221 2°41.933 305.2 0.7 279.6 11.2
2002-11-08 09:51:59 51°11.221 2°41.931 305 0.7 278.1 11.2
2002-11-08 09:52:04 51°11.221 2°41.93 305.3 0.7 276.3 11.2
2002-11-08 09:52:09 51°11.221 2°41.928 305 0.7 276 11.2
2002-11-08 09:52:14 51°11.221 2°41.927 305 0.7 274.8 11.2
2002-11-08 09:52:19 51°11.221 2°41.925 305.2 0.7 275.4 11.2
2002-11-08 09:52:24 51°11.221 2°41.924 305.2 0.7 273.9 11.2
2002-11-08 09:52:28 51°11.221 2°41.923 304.8 0.6 277.1 11.1
2002-11-08 09:52:34 51°11.222 2°41.921 304.8 0.6 278.4 11.2
2002-11-08 09:52:39 51°11.222 2°41.92 304.8 0.6 279.4 11.2
2002-11-08 09:52:44 51°11.222 2°41.919 305 0.6 276.1 11.2
2002-11-08 09:52:48 51°11.222 2°41.918 305.3 0.6 281.2 11.2
2002-11-08 09:52:52 51°11.222 2°41.916 305.2 0.7 281.9 11.3
2002-11-08 09:52:59 51°11.222 2°41.915 305.2 0.7 280.5 11.3
2002-11-08 09:53:03 51°11.222 2°41.913 305.3 0.7 277.6 11.3
2002-11-08 09:53:08 51°11.223 2°41.912 305.3 0.7 279.8 11.2
2002-11-08 09:53:14 51°11.223 2°41.91 305.3 0.7 281.5 11.2
2002-11-08 09:53:19 51°11.223 2°41.909 305.5 0.7 282.8 11.2
2002-11-08 09:53:24 51°11.223 2°41.907 305.5 0.7 279.5 11.2
2002-11-08 09:53:28 51°11.223 2°41.906 305.3 0.7 281.5 11.2
2002-11-08 09:53:32 51°11.223 2°41.905 305.5 0.7 280.2 11.2
2002-11-08 09:53:39 51°11.224 2°41.903 305.8 0.7 284.3 11.2
2002-11-08 09:53:44 51°11.224 2°41.901 305.7 0.7 281.8 11.2
2002-11-08 09:53:48 51°11.224 2°41.9 305.5 0.7 281 11.2
2002-11-08 09:53:54 51°11.224 2°41.899 305.5 0.7 278.3 11.2
2002-11-08 09:53:59 51°11.224 2°41.897 305.3 0.7 279.4 11.2
2002-11-08 09:54:04 51°11.224 2°41.896 305.3 0.7 279.7 11.2
2002-11-08 09:54:08 51°11.225 2°41.894 305.5 0.7 280.7 11.2
2002-11-08 09:54:14 51°11.225 2°41.893 305.7 0.7 284.5 11.2
2002-11-08 09:54:19 51°11.225 2°41.891 305.7 0.7 286.2 11.2
2002-11-08 09:54:23 51°11.225 2°41.89 305.7 0.8 286.9 11.2
2002-11-08 09:54:28 51°11.225 2°41.888 305.7 0.8 285.4 11.2
2002-11-08 09:54:32 51°11.226 2°41.887 305.3 0.7 284.5 11.2
2002-11-08 09:54:39 51°11.226 2°41.885 305.2 0.7 285.1 11.2
2002-11-08 09:54:43 51°11.226 2°41.884 305.5 0.7 285.1 11.2
2002-11-08 09:54:49 51°11.226 2°41.882 305.8 0.7 280.3 11.2
2002-11-08 09:54:54 51°11.226 2°41.88 306 0.6 281.3 11.2
2002-11-08 09:54:59 51°11.227 2°41.879 306 0.7 282.3 11.2
2002-11-08 09:55:03 51°11.227 2°41.878 305.8 0.7 282.3 11.2
2002-11-08 09:55:08 51°11.227 2°41.876 305.8 0.7 282.8 11.2
2002-11-08 09:55:12 51°11.227 2°41.875 306.2 0.7 281.1 11.2
2002-11-08 09:55:19 51°11.228 2°41.873 306.5 0.7 284.2 11.2
2002-11-08 09:55:24 51°11.228 2°41.872 306.7 0.7 280.6 11.2
2002-11-08 09:55:28 51°11.228 2°41.871 306.8 0.7 280.5 11.2
2002-11-08 09:55:34 51°11.228 2°41.869 307 0.7 282.9 11.2
2002-11-08 09:55:39 51°11.228 2°41.867 306.7 0.7 281.3 11.2
2002-11-08 09:55:43 51°11.228 2°41.866 306.3 0.7 282.6 11.2
2002-11-08 09:55:48 51°11.228 2°41.865 306.3 0.7 280 11.2
2002-11-08 09:55:52 51°11.229 2°41.864 306.2 0.7 280.9 11.2
2002-11-08 09:55:59 51°11.229 2°41.862 306.2 0.7 280 11.2
2002-11-08 09:56:03 51°11.229 2°41.861 305.7 0.7 275.6 11.2
2002-11-08 09:56:09 51°11.229 2°41.859 305.2 0.7 272.5 11.2
2002-11-08 09:56:13 51°11.229 2°41.858 304.8 0.7 275.7 11.2
2002-11-08 09:56:19 51°11.229 2°41.856 304.8 0.7 273.6 11.2
2002-11-08 09:56:24 51°11.229 2°41.855 304.8 0.7 277.7 11.2
2002-11-08 09:56:28 51°11.229 2°41.854 304.8 0.7 281.4 11.2
2002-11-08 09:56:34 51°11.229 2°41.852 305 0.7 283.9 11.2
2002-11-08 09:56:39 51°11.229 2°41.851 305 0.7 281 11.2
2002-11-08 09:56:44 51°11.229 2°41.85 305.3 0.7 277.4 11.2
2002-11-08 09:56:48 51°11.229 2°41.848 305.3 0.7 277.8 11.2
2002-11-08 09:56:54 51°11.229 2°41.847 305.3 0.6 273.3 11.1
2002-11-08 09:56:59 51°11.229 2°41.846 305.2 0.6 271.9 11.2
2002-11-08 09:57:04 51°11.229 2°41.845 304.5 0.6 269.6 11.2
2002-11-08 09:57:08 51°11.229 2°41.844 304.2 0.5 262.9 11.2
2002-11-08 09:57:14 51°11.229 2°41.842 304 0.5 261.1 11.2
2002-11-08 09:57:19 51°11.229 2°41.841 303.8 0.6 261.6 11.2
2002-11-08 09:57:24 51°11.229 2°41.84 303.8 0.5 264.4 11.2
2002-11-08 09:57:28 51°11.229 2°41.839 303.8 0.5 265 11.2
2002-11-08 09:57:32 51°11.229 2°41.838 303.5 0.5 262.1 11.2
2002-11-08 09:57:39 51°11.229 2°41.837 303.8 0.5 259.3 11.2
2002-11-08 09:57:44 51°11.229 2°41.835 304.3 0.5 262 11.2
2002-11-08 09:57:48 51°11.229 2°41.835 304.7 0.5 264.5 11.2
2002-11-08 09:57:54 51°11.229 2°41.833 304.7 0.5 266 11.2
2002-11-08 09:57:59 51°11.229 2°41.832 305 0.5 268.6 11.2
2002-11-08 09:58:04 51°11.229 2°41.831 305.7 0.5 270.5 11.2
2002-11-08 09:58:08 51°11.229 2°41.83 306 0.5 268.4 11.2
2002-11-08 09:58:14 51°11.228 2°41.829 306.3 0.5 266.6 11.2
2002-11-08 09:58:19 51°11.229 2°41.828 306.7 0.5 265.3 11.2
2002-11-08 09:58:23 51°11.229 2°41.827 306.7 0.5 267.1 11.2
2002-11-08 09:58:28 51°11.228 2°41.825 307.2 0.5 267.1 11.2
2002-11-08 09:58:32 51°11.229 2°41.825 307.3 0.5 269.7 11.2
2002-11-08 09:58:39 51°11.229 2°41.823 307.7 0.5 270.1 11.2
2002-11-08 09:58:43 51°11.229 2°41.822 308.2 0.5 272.7 11.2
2002-11-08 09:58:49 51°11.229 2°41.82 308.5 0.6 272.9 11.2
2002-11-08 09:58:53 51°11.229 2°41.82 309 0.5 268.5 11.2
2002-11-08 09:58:59 51°11.229 2°41.818 309.3 0.5 267.7 11.2
2002-11-08 09:59:03 51°11.229 2°41.817 309.7 0.5 268.2 11.2
2002-11-08 09:59:08 51°11.229 2°41.816 309.7 0.6 266 11.2
2002-11-08 09:59:14 51°11.228 2°41.814 309.5 0.6 268.4 11.2
2002-11-08 09:59:19 51°11.228 2°41.814 309.2 0.5 256.2 11.2
2002-11-08 09:59:24 51°11.228 2°41.812 309 0.5 256.9 11.2
2002-11-08 09:59:28 51°11.228 2°41.812 309.2 0.5 263.8 11.2
2002-11-08 09:59:33 51°11.228 2°41.811 308.8 0.5 259.7 11.2
2002-11-08 09:59:39 51°11.228 2°41.809 309 0.5 260.1 11.2
2002-11-08 09:59:43 51°11.228 2°41.808 309 0.5 263.3 11.2
2002-11-08 09:59:48 51°11.228 2°41.807 308.8 0.5 262.2 11.2
2002-11-08 09:59:54 51°11.228 2°41.806 309.3 0.5 269.5 11.2
2002-11-08 09:59:59 51°11.228 2°41.805 309 0.5 264.6 11.2
2002-11-08 10:00:04 51°11.227 2°41.804 308.7 0.5 261.6 11.2
2002-11-08 10:00:08 51°11.227 2°41.803 308.7 0.5 257 11.2
2002-11-08 10:00:14 51°11.227 2°41.802 308.7 0.4 258.2 11.2
2002-11-08 10:00:19 51°11.227 2°41.8 309 0.5 263 11.3
2002-11-08 10:00:23 51°11.227 2°41.8 309.3 0.5 265.3 11.3
2002-11-08 10:00:28 51°11.228 2°41.799 309.7 0.5 268.5 11.3